Time;durP1;ratioP1;P1;durP2;ratioP2;P2;SDS_P1;SDS_P2;PMS_P1;PMS_P2;Temp;Humidity;BMP_temperature;BMP_pressure;BME280_temperature;BME280_humidity;BME280_pressure;Samples;Min_cycle;Max_cycle;Signal;HPM_P1;HPM_P2
2022/02/02 00:20:23;;;;;;;5.57;3.72;;;;;;;;;;4849847;28;20121;-60
2022/02/02 00:22:52;;;;;;;5.72;3.55;;;;;;;;;;4200281;34;20549;-60
2022/02/02 00:25:23;;;;;;;5.53;4.35;;;;;;;;;;4203931;34;20117;-60
2022/02/02 00:27:54;;;;;;;5.82;3.78;;;;;;;;;;4203808;34;20222;-60
2022/02/02 00:30:24;;;;;;;5.95;3.95;;;;;;;;;;4204056;34;20228;-59
2022/02/02 00:33:02;;;;;;;6.22;4.12;;;;;;;;;;4203844;34;20100;-60
2022/02/02 00:35:34;;;;;;;5.43;3.83;;;;;;;;;;4203820;34;20132;-61
2022/02/02 00:38:00;;;;;;;5.82;4.30;;;;;;;;;;4180410;34;20273;-60
2022/02/02 00:40:26;;;;;;;5.65;3.75;;;;;;;;;;4203941;34;20111;-61
2022/02/02 00:42:52;;;;;;;4.68;3.65;;;;;;;;;;4190949;34;20090;-61
2022/02/02 00:45:18;;;;;;;7.87;4.28;;;;;;;;;;4203926;34;20117;-60
2022/02/02 00:47:49;;;;;;;6.32;4.03;;;;;;;;;;4191151;34;20105;-61
2022/02/02 00:50:15;;;;;;;4.68;3.45;;;;;;;;;;4203931;34;20165;-61
2022/02/02 00:52:42;;;;;;;5.25;3.70;;;;;;;;;;4203671;34;20094;-61
2022/02/02 00:55:09;;;;;;;5.47;3.78;;;;;;;;;;4203753;34;20113;-61
2022/02/02 00:57:35;;;;;;;5.82;4.07;;;;;;;;;;4195578;34;21146;-61
2022/02/02 01:00:01;;;;;;;6.43;4.15;;;;;;;;;;4177226;34;20477;-61
2022/02/02 01:02:27;;;;;;;5.87;3.80;;;;;;;;;;4189902;34;20161;-61
2022/02/02 01:04:53;;;;;;;7.32;4.05;;;;;;;;;;4189897;34;20119;-61
2022/02/02 01:07:48;;;;;;;5.70;3.97;;;;;;;;;;4189849;34;20297;-61
2022/02/02 01:10:22;;;;;;;5.75;4.00;;;;;;;;;;4190016;34;20129;-61
2022/02/02 01:13:09;;;;;;;6.15;3.83;;;;;;;;;;4189816;34;20142;-61
2022/02/02 01:16:24;;;;;;;7.62;3.95;;;;;;;;;;4189659;34;20138;-61
2022/02/02 01:18:32;;;;;;;7.28;4.25;;;;;;;;;;4189888;34;20124;-61
2022/02/02 01:21:04;;;;;;;9.23;4.37;;;;;;;;;;4189712;34;20188;-61
2022/02/02 01:29:01;;;;;;;5.95;3.83;;;;;;;;;;4219017;34;20136;-60
2022/02/02 01:31:27;;;;;;;5.95;4.10;;;;;;;;;;4219748;34;20109;-60
2022/02/02 01:33:53;;;;;;;7.75;4.25;;;;;;;;;;4219479;34;20102;-62
2022/02/02 01:36:20;;;;;;;5.30;4.00;;;;;;;;;;4219596;34;20224;-60
2022/02/02 01:38:47;;;;;;;6.40;4.00;;;;;;;;;;4206498;34;20097;-60
2022/02/02 01:41:30;;;;;;;6.80;4.15;;;;;;;;;;4195335;34;20117;-60
2022/02/02 01:44:46;;;;;;;5.32;4.53;;;;;;;;;;4219414;34;20506;-60
2022/02/02 01:46:48;;;;;;;11.48;5.25;;;;;;;;;;4213605;34;20144;-60
2022/02/02 01:59:47;;;;;;;6.18;4.57;;;;;;;;;;4205349;34;20167;-61
2022/02/02 02:02:13;;;;;;;6.22;4.12;;;;;;;;;;4192473;34;20101;-60
2022/02/02 02:04:39;;;;;;;5.22;4.03;;;;;;;;;;4192422;34;20110;-60
2022/02/02 02:07:06;;;;;;;6.62;4.10;;;;;;;;;;4205646;34;20182;-61
2022/02/02 02:09:32;;;;;;;6.93;4.28;;;;;;;;;;4205545;34;20098;-60
2022/02/02 02:12:01;;;;;;;7.72;4.35;;;;;;;;;;4192311;34;20128;-61
2022/02/02 02:16:53;;;;;;;6.70;4.47;;;;;;;;;;4205438;34;20157;-61
2022/02/02 02:19:21;;;;;;;6.95;4.22;;;;;;;;;;4205142;34;20126;-60
2022/02/02 02:21:50;;;;;;;5.87;4.45;;;;;;;;;;4205236;34;20128;-60
2022/02/02 02:24:16;;;;;;;6.05;4.32;;;;;;;;;;4208331;34;20133;-61
2022/02/02 02:26:42;;;;;;;7.72;4.18;;;;;;;;;;4206363;34;20273;-60
2022/02/02 02:29:31;;;;;;;6.62;4.57;;;;;;;;;;4219066;34;20124;-61
2022/02/02 02:58:48;;;;;;;6.32;4.22;;;;;;;;;;4199274;34;20112;-63
2022/02/02 03:31:29;;;;;;;7.07;5.37;;;;;;;;;;4218606;34;20113;-63
2022/02/02 04:06:25;;;;;;;7.80;4.85;;;;;;;;;;4203254;34;20130;-64
2022/02/02 04:08:51;;;;;;;7.65;5.10;;;;;;;;;;4202984;34;20529;-63
2022/02/02 04:11:58;;;;;;;7.90;5.18;;;;;;;;;;4203230;34;20294;-64
2022/02/02 04:39:13;;;;;;;8.30;5.30;;;;;;;;;;4217711;34;20116;-61
2022/02/02 04:58:11;;;;;;;7.60;5.47;;;;;;;;;;4217757;33;20602;-62
2022/02/02 05:03:40;;;;;;;7.35;5.10;;;;;;;;;;4219260;33;20108;-61
2022/02/02 05:53:31;;;;;;;7.97;6.00;;;;;;;;;;4233334;33;20587;-60
2022/02/02 05:56:01;;;;;;;8.90;6.40;;;;;;;;;;4220167;33;20118;-60
2022/02/02 05:58:28;;;;;;;8.43;6.30;;;;;;;;;;4233358;33;20105;-61
2022/02/02 06:00:56;;;;;;;8.70;6.15;;;;;;;;;;4233279;33;20121;-61
2022/02/02 06:03:31;;;;;;;9.88;6.65;;;;;;;;;;4233164;33;20151;-59
2022/02/02 06:05:57;;;;;;;10.38;5.95;;;;;;;;;;4220436;33;20541;-60
2022/02/02 06:08:24;;;;;;;8.70;6.57;;;;;;;;;;4232995;33;20100;-61
2022/02/02 06:10:50;;;;;;;10.73;6.65;;;;;;;;;;4233014;33;20093;-61
2022/02/02 06:13:17;;;;;;;9.60;7.10;;;;;;;;;;4219729;33;20113;-62
2022/02/02 06:15:43;;;;;;;10.07;6.95;;;;;;;;;;4207089;33;20125;-61
2022/02/02 06:18:10;;;;;;;9.95;7.20;;;;;;;;;;4218966;34;20125;-62
2022/02/02 06:20:36;;;;;;;11.85;7.22;;;;;;;;;;4217251;34;20212;-62
2022/02/02 06:23:33;;;;;;;11.15;7.90;;;;;;;;;;4218803;34;20126;-59
2022/02/02 06:26:02;;;;;;;12.23;7.55;;;;;;;;;;4218138;34;20121;-60
2022/02/02 06:28:33;;;;;;;11.25;7.20;;;;;;;;;;4218791;34;20261;-60
2022/02/02 06:31:02;;;;;;;11.70;7.05;;;;;;;;;;4218985;34;20113;-61
2022/02/02 06:33:36;;;;;;;9.73;7.32;;;;;;;;;;4218738;34;20128;-61
2022/02/02 06:36:04;;;;;;;10.02;7.62;;;;;;;;;;4218632;34;20188;-60
2022/02/02 06:38:31;;;;;;;12.50;7.03;;;;;;;;;;4229119;33;20514;-59
2022/02/02 06:40:58;;;;;;;10.75;6.57;;;;;;;;;;4218551;34;20128;-60
2022/02/02 06:43:25;;;;;;;8.68;6.75;;;;;;;;;;4218773;34;20097;-60
2022/02/02 06:45:51;;;;;;;8.18;6.03;;;;;;;;;;4218534;34;20140;-60
2022/02/02 06:48:17;;;;;;;8.60;6.80;;;;;;;;;;4205760;34;20101;-60
2022/02/02 06:50:55;;;;;;;9.00;5.68;;;;;;;;;;4228971;33;20213;-60
2022/02/02 06:53:37;;;;;;;9.70;5.93;;;;;;;;;;4218937;34;20113;-60
2022/02/02 07:05:06;;;;;;;10.50;6.45;;;;;;;;;;4218538;34;20201;-60
2022/02/02 07:07:58;;;;;;;9.82;6.20;;;;;;;;;;4218836;34;20094;-69
2022/02/02 07:10:58;;;;;;;10.32;6.57;;;;;;;;;;4206380;34;20113;-69
2022/02/02 07:13:58;;;;;;;7.97;6.53;;;;;;;;;;4208244;34;20114;-62
2022/02/02 07:29:52;;;;;;;9.77;6.07;;;;;;;;;;4225942;33;20100;-62
2022/02/02 07:32:26;;;;;;;8.00;6.30;;;;;;;;;;4217915;34;20111;-60
2022/02/02 07:35:06;;;;;;;8.43;6.15;;;;;;;;;;4218075;34;20121;-60
2022/02/02 07:37:35;;;;;;;8.55;6.22;;;;;;;;;;4227828;33;20128;-61
2022/02/02 07:40:04;;;;;;;9.48;6.70;;;;;;;;;;4228377;33;20101;-60
2022/02/02 07:42:31;;;;;;;7.68;6.20;;;;;;;;;;4205404;34;20115;-61
2022/02/02 07:45:07;;;;;;;9.68;6.68;;;;;;;;;;4218388;34;20262;-60
2022/02/02 07:47:38;;;;;;;9.23;5.85;;;;;;;;;;4228178;33;20125;-61
2022/02/02 07:50:05;;;;;;;9.40;5.60;;;;;;;;;;4205503;34;20105;-60
2022/02/02 07:52:32;;;;;;;8.98;6.82;;;;;;;;;;4218163;34;20124;-60
2022/02/02 07:55:01;;;;;;;10.82;7.62;;;;;;;;;;4218023;34;20082;-59
2022/02/02 07:57:28;;;;;;;14.48;8.38;;;;;;;;;;4205196;34;20165;-60
2022/02/02 07:59:59;;;;;;;15.82;10.32;;;;;;;;;;4205208;34;20183;-60
2022/02/02 08:05:12;;;;;;;12.07;9.07;;;;;;;;;;4218268;34;20180;-60
2022/02/02 08:07:48;;;;;;;11.68;8.60;;;;;;;;;;4218006;34;20121;-60
2022/02/02 08:10:20;;;;;;;7.82;6.72;;;;;;;;;;4218071;34;20098;-60
2022/02/02 08:12:55;;;;;;;8.80;6.40;;;;;;;;;;4217943;34;20116;-58
2022/02/02 08:15:22;;;;;;;7.40;5.57;;;;;;;;;;4217962;34;20113;-59
2022/02/02 08:17:51;;;;;;;8.77;5.50;;;;;;;;;;4217888;34;20140;-59
2022/02/02 08:20:18;;;;;;;7.55;5.28;;;;;;;;;;4217936;34;20132;-59
2022/02/02 08:22:44;;;;;;;9.60;5.87;;;;;;;;;;4204657;34;20117;-58
2022/02/02 08:25:26;;;;;;;9.15;5.87;;;;;;;;;;4216230;34;20117;-59
2022/02/02 08:27:56;;;;;;;10.05;6.62;;;;;;;;;;4216744;34;20129;-60
2022/02/02 08:30:24;;;;;;;9.52;6.05;;;;;;;;;;4216333;34;20521;-60
2022/02/02 08:32:57;;;;;;;5.57;4.90;;;;;;;;;;4216477;34;20120;-59
2022/02/02 08:35:29;;;;;;;7.65;5.82;;;;;;;;;;4213462;34;20490;-59
2022/02/02 08:38:07;;;;;;;8.63;7.00;;;;;;;;;;4204336;34;20104;-60
2022/02/02 08:40:41;;;;;;;8.32;6.30;;;;;;;;;;4204534;34;20086;-59
2022/02/02 08:43:15;;;;;;;8.70;6.47;;;;;;;;;;4205852;34;20214;-61
2022/02/02 08:45:44;;;;;;;8.43;5.97;;;;;;;;;;4192995;34;20117;-60
2022/02/02 08:48:14;;;;;;;9.25;5.68;;;;;;;;;;4206159;34;20093;-61
2022/02/02 08:58:37;;;;;;;7.30;5.35;;;;;;;;;;4192750;34;20439;-61
2022/02/02 09:01:13;;;;;;;7.82;4.87;;;;;;;;;;4205881;34;20113;-63
2022/02/02 09:06:24;;;;;;;7.80;5.12;;;;;;;;;;4205876;34;20521;-60
2022/02/02 09:08:59;;;;;;;6.65;4.78;;;;;;;;;;4205687;34;20109;-61
2022/02/02 09:25:14;;;;;;;9.18;5.57;;;;;;;;;;4213722;34;20106;-58
2022/02/02 09:35:55;;;;;;;7.95;5.55;;;;;;;;;;4219340;34;20105;-60
2022/02/02 09:38:22;;;;;;;6.97;5.75;;;;;;;;;;4219380;34;20105;-61
2022/02/02 09:43:23;;;;;;;6.43;5.15;;;;;;;;;;4219367;34;20116;-60
2022/02/02 09:45:56;;;;;;;8.18;5.30;;;;;;;;;;4219151;34;20113;-61
2022/02/02 09:48:40;;;;;;;6.78;5.90;;;;;;;;;;4218606;34;20176;-61
2022/02/02 09:51:11;;;;;;;6.93;5.40;;;;;;;;;;4196333;34;20123;-59
2022/02/02 09:53:42;;;;;;;8.18;5.55;;;;;;;;;;4219115;34;20561;-60
2022/02/02 09:56:38;;;;;;;8.48;6.30;;;;;;;;;;4219179;34;20097;-60
2022/02/02 10:15:30;;;;;;;8.35;6.25;;;;;;;;;;4217774;34;20446;-61
2022/02/02 10:17:57;;;;;;;10.80;7.40;;;;;;;;;;4218821;34;20109;-61
2022/02/02 10:20:25;;;;;;;11.80;9.38;;;;;;;;;;4219095;34;20132;-62
2022/02/02 10:22:53;;;;;;;11.15;9.45;;;;;;;;;;4218802;34;20212;-61
2022/02/02 10:25:35;;;;;;;8.90;6.65;;;;;;;;;;4218850;34;20124;-61
2022/02/02 10:28:13;;;;;;;11.00;8.60;;;;;;;;;;4218666;34;20204;-62
2022/02/02 10:30:43;;;;;;;8.77;5.90;;;;;;;;;;4194309;34;20124;-62
2022/02/02 10:33:27;;;;;;;6.43;5.47;;;;;;;;;;4205899;34;20109;-61
2022/02/02 10:35:59;;;;;;;8.20;6.07;;;;;;;;;;4218931;34;20113;-60
2022/02/02 10:38:30;;;;;;;8.00;7.10;;;;;;;;;;4218821;34;20104;-61
2022/02/02 10:43:45;;;;;;;7.03;5.47;;;;;;;;;;4205780;34;20097;-61
2022/02/02 10:46:37;;;;;;;7.60;6.15;;;;;;;;;;4218902;34;20552;-61
2022/02/02 10:49:15;;;;;;;6.95;4.75;;;;;;;;;;4218791;34;20181;-63
2022/02/02 10:51:51;;;;;;;6.00;4.85;;;;;;;;;;4218791;34;20143;-62
2022/02/02 10:54:30;;;;;;;6.00;5.15;;;;;;;;;;4206725;34;20632;-62
2022/02/02 10:57:32;;;;;;;5.95;5.35;;;;;;;;;;4195450;34;20124;-62
2022/02/02 11:00:25;;;;;;;10.15;8.82;;;;;;;;;;4205558;34;20094;-62
2022/02/02 11:08:27;;;;;;;17.85;14.00;;;;;;;;;;4218700;34;20105;-62
2022/02/02 11:10:57;;;;;;;18.52;14.50;;;;;;;;;;4218756;34;20527;-62
2022/02/02 11:13:25;;;;;;;20.35;14.30;;;;;;;;;;4218621;34;20434;-62
2022/02/02 11:15:54;;;;;;;10.55;8.52;;;;;;;;;;4194236;34;20109;-62
2022/02/02 11:18:24;;;;;;;11.15;8.50;;;;;;;;;;4205444;34;20208;-63
2022/02/02 11:20:52;;;;;;;7.95;6.87;;;;;;;;;;4205487;34;20533;-63
2022/02/02 11:23:19;;;;;;;7.55;6.60;;;;;;;;;;4218320;34;20115;-63
2022/02/02 11:25:50;;;;;;;8.00;6.20;;;;;;;;;;4192297;34;20112;-60
2022/02/02 11:28:28;;;;;;;7.53;5.60;;;;;;;;;;4218465;33;20102;-62
2022/02/02 11:31:16;;;;;;;5.12;4.62;;;;;;;;;;4216973;34;20110;-64
2022/02/02 11:33:44;;;;;;;4.85;4.32;;;;;;;;;;4218259;34;20191;-62
2022/02/02 11:36:19;;;;;;;5.25;4.75;;;;;;;;;;4218466;33;20117;-63
2022/02/02 11:38:46;;;;;;;6.75;4.72;;;;;;;;;;4216835;34;20093;-64
2022/02/02 11:43:52;;;;;;;5.65;4.90;;;;;;;;;;4218257;33;20197;-61
2022/02/02 11:49:33;;;;;;;6.22;5.40;;;;;;;;;;4213083;34;20145;-60
2022/02/02 11:52:04;;;;;;;5.05;4.55;;;;;;;;;;4218334;33;20124;-60
2022/02/02 11:54:42;;;;;;;5.07;4.25;;;;;;;;;;4216642;34;20225;-59
2022/02/02 11:57:15;;;;;;;6.72;4.43;;;;;;;;;;4216843;34;20109;-60
2022/02/02 12:00:03;;;;;;;6.05;4.43;;;;;;;;;;4216875;34;20541;-60
2022/02/02 12:07:55;;;;;;;13.75;10.10;;;;;;;;;;4218079;33;20119;-61
2022/02/02 12:10:56;;;;;;;9.18;7.07;;;;;;;;;;4218081;33;20085;-60
2022/02/02 12:49:47;;;;;;;4.43;4.00;;;;;;;;;;4217403;34;20593;-68
2022/02/02 12:57:58;;;;;;;3.72;3.42;;;;;;;;;;4213220;34;20125;-61
2022/02/02 13:00:36;;;;;;;4.65;3.42;;;;;;;;;;4192966;34;20119;-61
2022/02/02 13:03:04;;;;;;;4.22;3.60;;;;;;;;;;4207831;33;20098;-61
2022/02/02 13:05:31;;;;;;;3.97;3.67;;;;;;;;;;4202637;34;20530;-60
2022/02/02 13:08:01;;;;;;;5.95;4.15;;;;;;;;;;4203367;34;20093;-60
2022/02/02 13:10:29;;;;;;;4.65;4.05;;;;;;;;;;4208307;34;20221;-61
2022/02/02 13:13:21;;;;;;;4.60;4.20;;;;;;;;;;4204271;34;20110;-60
2022/02/02 13:15:57;;;;;;;4.87;4.43;;;;;;;;;;4217453;34;20112;-59
2022/02/02 13:18:35;;;;;;;4.80;4.30;;;;;;;;;;4191335;34;20090;-60
2022/02/02 13:21:21;;;;;;;5.60;5.00;;;;;;;;;;4203128;34;20561;-62
2022/02/02 13:26:45;;;;;;;5.68;5.18;;;;;;;;;;4205586;34;20305;-61
2022/02/02 13:29:22;;;;;;;5.62;5.10;;;;;;;;;;4205663;34;20197;-60
2022/02/02 13:56:16;;;;;;;3.92;3.53;;;;;;;;;;4219383;34;20112;-59
2022/02/02 13:59:07;;;;;;;5.93;4.97;;;;;;;;;;4219183;34;20620;-59
2022/02/02 14:10:04;;;;;;;3.40;3.10;;;;;;;;;;4219041;34;20208;-60
2022/02/02 14:31:26;;;;;;;3.75;3.37;;;;;;;;;;4206077;34;20449;-59
2022/02/02 14:34:01;;;;;;;3.78;3.28;;;;;;;;;;4181000;34;20094;-60
2022/02/02 14:36:29;;;;;;;4.28;3.15;;;;;;;;;;4191734;34;20117;-59
2022/02/02 14:44:34;;;;;;;3.15;2.83;;;;;;;;;;4174797;34;20134;-59
2022/02/02 14:49:33;;;;;;;3.15;2.83;;;;;;;;;;4212375;34;20108;-59
2022/02/02 15:06:59;;;;;;;3.10;2.90;;;;;;;;;;4218330;34;20523;-61
2022/02/02 15:27:33;;;;;;;3.28;2.97;;;;;;;;;;4205678;34;20204;-63
2022/02/02 15:32:47;;;;;;;2.40;2.20;;;;;;;;;;4206594;34;20105;-60
2022/02/02 15:35:14;;;;;;;2.08;1.87;;;;;;;;;;4210581;34;20105;-61
2022/02/02 15:37:56;;;;;;;2.10;1.90;;;;;;;;;;4215367;34;20231;-57
2022/02/02 15:40:28;;;;;;;2.33;2.12;;;;;;;;;;4215469;34;20549;-59
2022/02/02 15:43:25;;;;;;;2.15;1.98;;;;;;;;;;4191852;34;20082;-60
2022/02/02 15:59:20;;;;;;;2.58;2.37;;;;;;;;;;4210761;34;20542;-60
2022/02/02 16:04:21;;;;;;;2.55;2.00;;;;;;;;;;4196656;34;20114;-60
2022/02/02 16:06:49;;;;;;;4.15;2.10;;;;;;;;;;4209436;34;20108;-59
2022/02/02 16:09:29;;;;;;;2.50;2.22;;;;;;;;;;4208859;34;20216;-60
2022/02/02 16:12:12;;;;;;;2.00;1.90;;;;;;;;;;4208883;34;20096;-59
2022/02/02 16:14:45;;;;;;;2.20;2.00;;;;;;;;;;4213685;34;20208;-62
2022/02/02 16:17:20;;;;;;;2.15;1.95;;;;;;;;;;4211525;34;20493;-60
2022/02/02 16:38:12;;;;;;;1.65;1.55;;;;;;;;;;4215683;34;20738;-60
2022/02/02 16:40:42;;;;;;;1.70;1.58;;;;;;;;;;4203287;33;20453;-61
2022/02/02 16:43:13;;;;;;;2.15;1.95;;;;;;;;;;4213277;33;20113;-61
2022/02/02 16:45:44;;;;;;;1.67;1.58;;;;;;;;;;4216878;34;20574;-59
2022/02/02 16:48:11;;;;;;;1.67;1.58;;;;;;;;;;4210728;34;20094;-60
2022/02/02 16:50:43;;;;;;;1.58;1.48;;;;;;;;;;4215734;34;20113;-61
2022/02/02 16:53:26;;;;;;;1.37;1.27;;;;;;;;;;4216105;34;20113;-58
2022/02/02 17:31:37;;;;;;;2.33;2.12;;;;;;;;;;4211787;34;20134;-58
2022/02/02 17:34:17;;;;;;;1.20;1.10;;;;;;;;;;4211364;34;20093;-59
2022/02/02 17:36:50;;;;;;;2.10;1.90;;;;;;;;;;4212503;34;20121;-58
2022/02/02 17:39:18;;;;;;;1.30;1.20;;;;;;;;;;4211242;34;20105;-59
2022/02/02 17:42:15;;;;;;;4.43;2.08;;;;;;;;;;4205453;34;20110;-59
2022/02/02 17:44:59;;;;;;;1.30;1.20;;;;;;;;;;4205223;34;20125;-59
2022/02/02 18:02:00;;;;;;;1.20;1.20;;;;;;;;;;4206125;34;20118;-59
2022/02/02 18:20:18;;;;;;;1.42;1.33;;;;;;;;;;4216754;34;20136;-58
2022/02/02 18:22:50;;;;;;;1.10;1.10;;;;;;;;;;4213624;34;20109;-59
2022/02/02 18:25:37;;;;;;;2.03;1.85;;;;;;;;;;4212255;34;20208;-58
2022/02/02 18:28:19;;;;;;;1.90;1.80;;;;;;;;;;4211705;34;20540;-59
2022/02/02 18:31:09;;;;;;;1.33;1.23;;;;;;;;;;4212062;34;20122;-58
2022/02/02 18:49:33;;;;;;;2.22;2.03;;;;;;;;;;4210733;34;20113;-59
2022/02/02 18:54:56;;;;;;;1.70;1.60;;;;;;;;;;4210936;34;20209;-56
2022/02/02 18:57:35;;;;;;;1.37;1.27;;;;;;;;;;4211741;34;20114;-62
2022/02/02 19:38:20;;;;;;;1.40;1.30;;;;;;;;;;4201041;34;20101;-59
2022/02/02 19:55:18;;;;;;;1.33;1.23;;;;;;;;;;4200345;34;20620;-58
2022/02/02 20:03:31;;;;;;;1.10;1.10;;;;;;;;;;4210368;34;20617;-60
2022/02/02 20:06:22;;;;;;;1.23;1.02;;;;;;;;;;4211503;34;20132;-59
2022/02/02 20:08:43;;;;;;;1.30;1.20;;;;;;;;;;4211261;34;20105;-59
2022/02/02 20:11:16;;;;;;;1.70;1.30;;;;;;;;;;4211401;34;20706;-59
2022/02/02 20:13:43;;;;;;;1.50;1.40;;;;;;;;;;4210778;34;20109;-60
2022/02/02 20:16:09;;;;;;;1.20;1.20;;;;;;;;;;4197207;34;20216;-59
2022/02/02 20:18:39;;;;;;;1.45;1.35;;;;;;;;;;4211374;34;20089;-59
2022/02/02 20:21:08;;;;;;;1.12;1.12;;;;;;;;;;4198264;34;20487;-59
2022/02/02 20:23:41;;;;;;;1.20;1.10;;;;;;;;;;4210011;34;20538;-59
2022/02/02 20:26:09;;;;;;;1.35;1.25;;;;;;;;;;4210153;34;20188;-59
2022/02/02 20:28:35;;;;;;;2.28;1.48;;;;;;;;;;4211237;34;20506;-60
2022/02/02 20:31:01;;;;;;;2.62;2.37;;;;;;;;;;4210639;34;20493;-59
2022/02/02 20:33:28;;;;;;;1.40;1.30;;;;;;;;;;4213586;33;20105;-60
2022/02/02 20:35:54;;;;;;;1.35;1.25;;;;;;;;;;4214408;34;20202;-60
2022/02/02 20:38:20;;;;;;;1.60;1.50;;;;;;;;;;4215518;34;20443;-59
2022/02/02 20:40:46;;;;;;;1.30;1.20;;;;;;;;;;4215535;34;20501;-60
2022/02/02 20:43:24;;;;;;;1.50;1.40;;;;;;;;;;4214472;34;20114;-60
2022/02/02 21:05:27;;;;;;;1.15;1.15;;;;;;;;;;4192779;34;20121;-58
2022/02/02 21:10:23;;;;;;;1.25;1.20;;;;;;;;;;4215210;34;20599;-58
2022/02/02 21:15:37;;;;;;;1.15;1.15;;;;;;;;;;4214418;34;20197;-59
2022/02/02 21:18:10;;;;;;;1.52;1.42;;;;;;;;;;4214682;34;20092;-57
2022/02/02 21:20:59;;;;;;;1.40;1.30;;;;;;;;;;4215912;34;20540;-58
2022/02/02 21:26:34;;;;;;;1.45;1.35;;;;;;;;;;4190038;34;20106;-58
2022/02/02 21:29:00;;;;;;;1.48;1.37;;;;;;;;;;4214588;34;20129;-58
2022/02/02 21:31:26;;;;;;;1.45;1.35;;;;;;;;;;4214255;34;20113;-58
2022/02/02 21:33:52;;;;;;;1.50;1.40;;;;;;;;;;4202375;34;20217;-58
2022/02/02 21:36:18;;;;;;;3.20;1.40;;;;;;;;;;4214167;34;20110;-59
2022/02/02 21:39:06;;;;;;;1.65;1.55;;;;;;;;;;4214288;34;20105;-59
2022/02/02 21:41:36;;;;;;;1.60;1.50;;;;;;;;;;4215085;34;20109;-59
2022/02/02 21:44:04;;;;;;;1.60;1.50;;;;;;;;;;4213084;34;20110;-59
2022/02/02 21:46:30;;;;;;;1.45;1.35;;;;;;;;;;4211238;34;20547;-59
2022/02/02 21:48:59;;;;;;;1.85;1.60;;;;;;;;;;4212978;34;20185;-59
2022/02/02 21:51:32;;;;;;;1.65;1.55;;;;;;;;;;4212546;34;20085;-59
2022/02/02 21:53:58;;;;;;;1.52;1.42;;;;;;;;;;4198745;34;20101;-59
2022/02/02 21:56:24;;;;;;;1.45;1.35;;;;;;;;;;4211709;34;20205;-59
2022/02/02 21:58:51;;;;;;;2.42;1.52;;;;;;;;;;4212680;34;20113;-59
2022/02/02 22:01:18;;;;;;;1.50;1.40;;;;;;;;;;4211863;34;20113;-59
2022/02/02 22:03:44;;;;;;;1.67;1.45;;;;;;;;;;4211867;34;20101;-59
2022/02/02 22:06:10;;;;;;;1.70;1.60;;;;;;;;;;4212480;34;20150;-59
2022/02/02 22:08:36;;;;;;;1.45;1.40;;;;;;;;;;4198315;34;20101;-59
2022/02/02 22:11:03;;;;;;;1.58;1.48;;;;;;;;;;4212005;34;20109;-59
2022/02/02 22:13:37;;;;;;;1.42;1.33;;;;;;;;;;4212599;34;20086;-59
2022/02/02 22:16:09;;;;;;;1.65;1.55;;;;;;;;;;4198888;34;20125;-59
2022/02/02 22:18:36;;;;;;;1.50;1.40;;;;;;;;;;4211182;34;20165;-59
2022/02/02 22:21:02;;;;;;;1.50;1.40;;;;;;;;;;4211887;34;20109;-57
2022/02/02 22:23:28;;;;;;;1.45;1.35;;;;;;;;;;4212338;34;20125;-59
2022/02/02 22:25:56;;;;;;;1.48;1.37;;;;;;;;;;4211115;34;20214;-60
2022/02/02 22:28:22;;;;;;;1.27;1.25;;;;;;;;;;4211778;34;20113;-59
2022/02/02 22:30:48;;;;;;;1.30;1.30;;;;;;;;;;4212473;34;20118;-59
2022/02/02 22:33:15;;;;;;;1.40;1.30;;;;;;;;;;4211051;34;20154;-59
2022/02/02 22:35:41;;;;;;;1.70;1.60;;;;;;;;;;4211895;34;20213;-59
2022/02/02 22:38:08;;;;;;;1.70;1.60;;;;;;;;;;4212073;34;20118;-59
2022/02/02 22:40:35;;;;;;;1.62;1.52;;;;;;;;;;4210779;34;20117;-59
2022/02/02 22:43:01;;;;;;;1.20;1.20;;;;;;;;;;4211929;34;20109;-59
2022/02/02 22:45:28;;;;;;;1.50;1.40;;;;;;;;;;4212194;34;20102;-59
2022/02/02 22:47:56;;;;;;;1.50;1.40;;;;;;;;;;4210811;34;20105;-59
2022/02/02 22:50:22;;;;;;;1.60;1.50;;;;;;;;;;4211587;34;20137;-58
2022/02/02 22:52:52;;;;;;;1.37;1.33;;;;;;;;;;4212198;34;20097;-59
2022/02/02 22:55:20;;;;;;;1.33;1.30;;;;;;;;;;4210933;34;20102;-58
2022/02/02 22:57:48;;;;;;;1.40;1.30;;;;;;;;;;4211193;34;20125;-59
2022/02/02 23:00:19;;;;;;;1.30;1.30;;;;;;;;;;4212423;34;20229;-59
2022/02/02 23:02:54;;;;;;;1.48;1.37;;;;;;;;;;4211835;34;20117;-59
2022/02/02 23:05:26;;;;;;;1.48;1.37;;;;;;;;;;4211168;34;20109;-59
2022/02/02 23:07:52;;;;;;;1.40;1.33;;;;;;;;;;4210695;34;20225;-59
2022/02/02 23:10:20;;;;;;;1.40;1.40;;;;;;;;;;4211846;34;20150;-59
2022/02/02 23:12:47;;;;;;;1.40;1.30;;;;;;;;;;4211769;34;20165;-59
2022/02/02 23:15:20;;;;;;;1.37;1.30;;;;;;;;;;4210573;34;20129;-58
2022/02/02 23:17:47;;;;;;;1.50;1.40;;;;;;;;;;4211280;34;20078;-59
2022/02/02 23:20:14;;;;;;;2.00;1.60;;;;;;;;;;4211857;34;20106;-59
2022/02/02 23:22:40;;;;;;;1.40;1.30;;;;;;;;;;4211114;34;20529;-59
2022/02/02 23:25:11;;;;;;;1.77;1.30;;;;;;;;;;4210888;34;20097;-59
2022/02/02 23:27:38;;;;;;;1.40;1.30;;;;;;;;;;4200036;34;20086;-59
2022/02/02 23:30:09;;;;;;;1.58;1.48;;;;;;;;;;4198265;34;20128;-59
2022/02/02 23:32:35;;;;;;;1.33;1.30;;;;;;;;;;4210535;34;20094;-59
2022/02/02 23:35:03;;;;;;;1.70;1.60;;;;;;;;;;4198752;34;20096;-57
2022/02/02 23:37:29;;;;;;;1.60;1.50;;;;;;;;;;4198876;34;20118;-59
2022/02/02 23:39:56;;;;;;;1.35;1.30;;;;;;;;;;4188013;34;20145;-58
2022/02/02 23:42:30;;;;;;;1.73;1.40;;;;;;;;;;4211205;34;20092;-59
2022/02/02 23:44:56;;;;;;;2.75;1.52;;;;;;;;;;4211777;34;20104;-59
2022/02/02 23:47:25;;;;;;;1.30;1.20;;;;;;;;;;4211103;34;20547;-59
2022/02/02 23:49:55;;;;;;;1.23;1.20;;;;;;;;;;4197638;34;20114;-59
